Time;durP1;ratioP1;P1;durP2;ratioP2;P2;SDS_P1;SDS_P2;PMS_P1;PMS_P2;Temp;Humidity;BMP_temperature;BMP_pressure;BME280_temperature;BME280_humidity;BME280_pressure;Samples;Min_cycle;Max_cycle;Signal;HPM_P1;HPM_P2
2022/06/22 00:01:58;;;;;;;4.15;3.38;;;16.10;99.90;;;;;;5055055;28;20547;-81
2022/06/22 00:04:44;;;;;;;3.50;3.20;;;16.10;99.90;;;;;;5054671;28;20281;-80
2022/06/22 00:07:22;;;;;;;4.72;3.40;;;16.10;99.90;;;;;;5038830;28;20217;-80
2022/06/22 00:09:53;;;;;;;4.68;3.70;;;16.00;99.90;;;;;;5055307;28;20171;-81
2022/06/22 00:12:30;;;;;;;6.13;3.70;;;16.00;99.90;;;;;;5055322;28;20616;-81
2022/06/22 00:14:58;;;;;;;4.65;3.53;;;15.90;99.90;;;;;;5053985;28;20637;-80
2022/06/22 00:17:33;;;;;;;6.05;3.50;;;16.00;99.90;;;;;;5054339;28;20205;-80
2022/06/22 00:20:04;;;;;;;4.40;3.38;;;15.90;99.90;;;;;;5054349;28;20163;-80
2022/06/22 00:22:44;;;;;;;4.38;3.63;;;15.90;99.90;;;;;;5039106;28;20155;-81
2022/06/22 00:25:26;;;;;;;4.32;3.47;;;16.00;99.90;;;;;;5054305;28;20646;-80
2022/06/22 00:27:52;;;;;;;5.55;3.88;;;15.90;99.90;;;;;;5054619;28;20179;-80
2022/06/22 00:30:30;;;;;;;5.05;3.58;;;15.90;99.90;;;;;;5053617;28;20189;-80
2022/06/22 00:33:22;;;;;;;4.75;3.35;;;15.80;99.90;;;;;;5055098;28;20567;-81
2022/06/22 00:35:52;;;;;;;3.30;3.00;;;15.80;99.90;;;;;;5055965;28;20297;-82
2022/06/22 00:38:30;;;;;;;4.93;4.05;;;15.80;99.90;;;;;;5056380;28;20229;-81
2022/06/22 00:41:03;;;;;;;4.93;3.75;;;15.80;99.90;;;;;;5056810;28;20266;-81
2022/06/22 00:43:33;;;;;;;4.13;3.55;;;15.70;99.90;;;;;;5055866;28;20590;-81
2022/06/22 00:46:00;;;;;;;3.60;3.28;;;15.80;99.90;;;;;;5039003;28;20198;-81
2022/06/22 00:48:36;;;;;;;3.63;3.22;;;15.80;99.90;;;;;;5040310;28;20171;-81
2022/06/22 00:52:10;;;;;;;3.83;3.42;;;15.70;99.90;;;;;;5056554;28;20194;-81
2022/06/22 00:54:59;;;;;;;4.25;3.40;;;15.70;99.90;;;;;;4976351;28;20231;-81
2022/06/22 00:57:36;;;;;;;6.45;3.20;;;15.50;99.90;;;;;;5037983;28;20202;-81
2022/06/22 01:00:16;;;;;;;3.97;3.40;;;15.40;99.90;;;;;;5055061;28;20695;-81
2022/06/22 01:03:08;;;;;;;4.93;3.75;;;15.30;99.90;;;;;;5054938;28;20258;-82
2022/06/22 01:05:40;;;;;;;4.30;3.30;;;15.20;99.90;;;;;;5030236;28;20214;-81
2022/06/22 01:08:20;;;;;;;5.28;3.63;;;15.10;99.90;;;;;;5039561;28;20175;-81
2022/06/22 01:10:52;;;;;;;4.93;3.78;;;15.00;99.90;;;;;;5054959;28;20175;-81
2022/06/22 01:13:43;;;;;;;6.25;3.92;;;14.90;99.90;;;;;;5054261;28;20187;-81
2022/06/22 01:16:23;;;;;;;5.22;3.72;;;14.90;99.90;;;;;;5038112;28;20201;-80
2022/06/22 01:19:15;;;;;;;6.40;3.58;;;14.90;99.90;;;;;;5054352;28;20186;-81
2022/06/22 01:21:46;;;;;;;7.57;3.60;;;14.90;99.90;;;;;;5035678;28;20171;-81
2022/06/22 01:24:33;;;;;;;4.53;3.65;;;14.90;99.90;;;;;;5054696;28;20183;-81
2022/06/22 01:27:52;;;;;;;5.70;3.85;;;14.80;99.90;;;;;;5055195;28;20690;-82
2022/06/22 01:31:12;;;;;;;4.78;3.97;;;14.80;99.90;;;;;;5056969;28;20260;-80
2022/06/22 01:34:03;;;;;;;7.43;4.43;;;14.80;99.90;;;;;;5062945;28;20206;-81
2022/06/22 01:36:33;;;;;;;7.68;3.60;;;14.70;99.90;;;;;;5053670;28;20168;-80
2022/06/22 01:39:01;;;;;;;5.05;4.15;;;14.60;99.90;;;;;;5051984;28;20615;-80
2022/06/22 01:41:38;;;;;;;8.10;4.30;;;14.60;99.90;;;;;;5052472;28;20633;-80
2022/06/22 01:44:17;;;;;;;7.45;3.97;;;14.60;99.90;;;;;;5052464;28;20258;-80
2022/06/22 01:47:44;;;;;;;;;;;;;;;;;;;;;
2022/06/22 01:51:02;;;;;;;8.00;4.43;;;14.40;99.90;;;;;;5037523;28;20264;-81
2022/06/22 01:54:02;;;;;;;;;;;;;;;;;;;;;
2022/06/22 01:57:24;;;;;;;6.85;3.95;;;14.40;99.90;;;;;;5037669;28;20266;-80
2022/06/22 01:59:53;;;;;;;6.38;3.88;;;14.30;99.90;;;;;;5021890;28;20652;-80
2022/06/22 02:02:29;;;;;;;4.63;3.97;;;14.20;99.90;;;;;;5054010;28;20167;-80
2022/06/22 02:05:24;;;;;;;4.22;3.83;;;14.20;99.90;;;;;;5037031;28;20205;-80
2022/06/22 02:08:27;;;;;;;7.35;4.13;;;14.20;99.90;;;;;;5036095;28;20191;-80
2022/06/22 02:10:59;;;;;;;4.38;3.92;;;14.10;99.90;;;;;;5004354;28;20662;-80
2022/06/22 02:13:56;;;;;;;4.60;3.90;;;14.00;99.90;;;;;;5036727;28;20251;-80
2022/06/22 02:16:33;;;;;;;7.18;3.88;;;14.00;99.90;;;;;;5036706;28;20663;-80
2022/06/22 02:18:58;;;;;;;4.17;3.77;;;13.90;99.90;;;;;;5037755;28;20160;-80
2022/06/22 02:21:35;;;;;;;5.50;4.10;;;13.90;99.90;;;;;;5052952;28;20651;-81
2022/06/22 02:24:31;;;;;;;5.72;3.60;;;13.90;99.90;;;;;;5053722;28;20220;-81
2022/06/22 02:27:22;;;;;;;4.03;3.65;;;14.00;99.90;;;;;;5053601;28;20280;-82
2022/06/22 02:29:54;;;;;;;4.60;3.83;;;13.90;99.90;;;;;;5039322;28;20194;-81
2022/06/22 02:32:32;;;;;;;7.15;3.58;;;13.80;99.90;;;;;;5056355;28;20643;-81
2022/06/22 02:35:11;;;;;;;6.00;4.40;;;13.80;99.90;;;;;;5055864;28;20586;-81
2022/06/22 02:37:50;;;;;;;7.63;4.07;;;13.70;99.90;;;;;;5041655;28;20245;-81
2022/06/22 02:40:32;;;;;;;6.43;4.43;;;13.70;99.90;;;;;;5041486;28;20179;-81
2022/06/22 02:45:44;;;;;;;4.60;4.10;;;13.50;99.90;;;;;;5041459;28;20282;-81
2022/06/22 02:48:37;;;;;;;6.50;3.90;;;13.50;99.90;;;;;;5041279;28;20709;-81
2022/06/22 02:51:29;;;;;;;5.25;4.05;;;13.50;99.90;;;;;;5040309;28;20619;-81
2022/06/22 02:53:59;;;;;;;5.43;4.32;;;13.40;99.90;;;;;;5041392;28;20605;-81
2022/06/22 02:56:31;;;;;;;6.07;4.43;;;13.30;99.90;;;;;;5039529;28;20198;-81
2022/06/22 02:58:58;;;;;;;5.90;4.60;;;13.20;99.90;;;;;;5056433;28;20241;-81
2022/06/22 03:01:31;;;;;;;4.93;4.43;;;13.30;99.90;;;;;;5039798;28;20662;-81
2022/06/22 03:04:02;;;;;;;6.78;5.40;;;13.30;99.90;;;;;;5040590;28;20206;-81
2022/06/22 03:06:36;;;;;;;7.82;4.30;;;13.20;99.90;;;;;;5040583;28;20198;-81
2022/06/22 03:09:06;;;;;;;5.70;4.30;;;13.30;99.90;;;;;;5056856;28;20174;-81
2022/06/22 03:11:35;;;;;;;4.95;4.45;;;13.20;99.90;;;;;;5056453;28;20186;-81
2022/06/22 03:14:24;;;;;;;4.97;4.50;;;13.30;99.90;;;;;;5040198;28;20660;-80
2022/06/22 03:17:01;;;;;;;5.55;4.22;;;13.30;99.90;;;;;;5056753;28;20233;-81
2022/06/22 03:19:43;;;;;;;5.32;4.47;;;13.20;99.90;;;;;;5056991;28;20186;-82
2022/06/22 03:22:40;;;;;;;5.47;4.85;;;13.20;99.90;;;;;;5056765;28;20191;-81
2022/06/22 03:25:21;;;;;;;8.82;4.72;;;13.10;99.90;;;;;;5038066;28;20195;-81
2022/06/22 03:27:51;;;;;;;4.30;3.90;;;13.00;99.90;;;;;;5056260;28;20579;-81
2022/06/22 03:30:20;;;;;;;4.70;4.30;;;13.00;99.90;;;;;;5039967;28;20175;-80
2022/06/22 03:33:01;;;;;;;6.30;4.40;;;12.90;99.90;;;;;;5055985;28;20203;-81
2022/06/22 03:35:47;;;;;;;7.90;5.13;;;12.90;99.90;;;;;;5055691;28;20210;-80
2022/06/22 03:38:16;;;;;;;8.60;5.03;;;12.70;99.90;;;;;;5056064;28;20191;-81
2022/06/22 03:41:00;;;;;;;7.23;4.87;;;12.60;99.90;;;;;;5055875;28;20167;-79
2022/06/22 03:44:03;;;;;;;9.27;4.97;;;12.50;99.90;;;;;;5039203;28;20179;-81
2022/06/22 03:46:54;;;;;;;9.63;5.23;;;12.50;99.90;;;;;;5055441;28;20178;-80
2022/06/22 03:49:35;;;;;;;8.23;5.13;;;12.60;99.90;;;;;;5055214;28;20179;-81
2022/06/22 03:52:38;;;;;;;9.35;4.63;;;12.70;99.90;;;;;;5055772;28;20203;-80
2022/06/22 03:55:13;;;;;;;5.67;4.77;;;12.90;99.90;;;;;;5039197;28;20629;-80
2022/06/22 03:57:49;;;;;;;6.40;5.20;;;13.00;99.90;;;;;;5040388;28;20595;-82
2022/06/22 04:00:36;;;;;;;7.65;5.28;;;13.10;99.90;;;;;;5044701;28;20195;-82
2022/06/22 04:03:05;;;;;;;7.30;5.07;;;13.10;99.90;;;;;;5040525;28;20203;-82
2022/06/22 04:05:42;;;;;;;7.63;4.60;;;13.20;99.90;;;;;;5039125;28;20223;-82
2022/06/22 04:08:39;;;;;;;7.33;5.10;;;13.20;99.90;;;;;;5039272;28;20270;-82
2022/06/22 04:11:18;;;;;;;6.72;4.85;;;13.10;99.90;;;;;;5039269;28;20176;-82
2022/06/22 04:13:46;;;;;;;7.40;5.30;;;13.10;99.90;;;;;;5055765;28;20203;-82
2022/06/22 04:16:27;;;;;;;6.45;5.15;;;13.10;99.90;;;;;;5039844;28;20240;-82
2022/06/22 04:19:10;;;;;;;13.93;4.97;;;13.20;99.90;;;;;;5056228;28;20182;-82
2022/06/22 04:21:43;;;;;;;8.60;4.90;;;13.20;99.90;;;;;;5040836;28;20194;-82
2022/06/22 04:24:15;;;;;;;8.83;4.93;;;13.20;99.90;;;;;;5022759;28;20190;-82
2022/06/22 04:26:56;;;;;;;7.72;5.18;;;13.20;99.90;;;;;;5039776;28;20644;-83
2022/06/22 04:29:39;;;;;;;10.38;6.50;;;13.10;99.90;;;;;;5056304;28;20182;-83
2022/06/22 04:32:23;;;;;;;9.50;5.88;;;13.10;99.90;;;;;;5056356;28;20190;-83
2022/06/22 04:35:01;;;;;;;11.15;6.55;;;13.10;99.90;;;;;;5055664;28;20218;-83
2022/06/22 04:37:40;;;;;;;12.40;7.03;;;13.10;99.90;;;;;;5055459;28;20183;-83
2022/06/22 04:40:12;;;;;;;15.02;7.28;;;13.10;99.90;;;;;;5056181;28;20175;-83
2022/06/22 04:42:38;;;;;;;14.30;10.05;;;13.10;99.90;;;;;;5056718;28;20171;-82
2022/06/22 04:45:05;;;;;;;16.75;10.30;;;13.20;99.90;;;;;;5055601;28;20230;-83
2022/06/22 04:47:35;;;;;;;15.18;10.38;;;13.20;99.90;;;;;;5055881;28;20215;-82
2022/06/22 04:50:08;;;;;;;13.02;9.18;;;13.30;99.90;;;;;;5040869;28;20175;-83
2022/06/22 04:53:20;;;;;;;12.30;9.70;;;13.40;99.90;;;;;;5040508;28;20168;-82
2022/06/22 04:56:42;;;;;;;12.48;10.32;;;13.60;99.90;;;;;;5038970;28;20215;-82
2022/06/22 04:59:53;;;;;;;14.85;10.55;;;13.80;99.90;;;;;;5037381;28;20581;-83
2022/06/22 05:03:12;;;;;;;16.02;10.02;;;13.80;99.90;;;;;;5037047;28;20183;-83
2022/06/22 05:05:38;;;;;;;15.18;9.07;;;13.90;99.90;;;;;;5026730;28;20207;-84
2022/06/22 05:08:25;;;;;;;15.30;9.50;;;13.90;99.90;;;;;;5054654;28;20183;-84
2022/06/22 05:11:20;;;;;;;15.35;9.18;;;14.00;99.90;;;;;;5056471;28;20175;-83
2022/06/22 05:13:48;;;;;;;16.23;9.93;;;14.10;99.90;;;;;;5056262;28;20198;-83
2022/06/22 05:16:27;;;;;;;13.88;9.15;;;14.10;99.90;;;;;;5039345;28;20644;-83
2022/06/22 05:18:56;;;;;;;13.40;9.48;;;14.20;99.90;;;;;;5054650;28;20266;-83
2022/06/22 05:21:48;;;;;;;12.18;9.27;;;14.20;99.90;;;;;;5053538;28;20194;-83
2022/06/22 05:24:35;;;;;;;14.25;9.25;;;14.20;99.90;;;;;;5053550;28;20674;-82
2022/06/22 05:30:03;;;;;;;14.40;8.30;;;14.30;99.90;;;;;;5037551;28;20210;-83
2022/06/22 05:32:54;;;;;;;10.35;7.35;;;14.40;99.90;;;;;;5051599;28;20573;-83
2022/06/22 05:35:30;;;;;;;14.15;8.43;;;14.50;99.90;;;;;;5051213;28;20215;-83
2022/06/22 05:38:11;;;;;;;12.60;8.15;;;14.60;99.90;;;;;;5052749;28;20193;-83
2022/06/22 05:40:40;;;;;;;8.60;6.10;;;14.80;99.90;;;;;;5036601;28;20239;-82
2022/06/22 05:43:07;;;;;;;9.50;6.13;;;14.90;99.90;;;;;;5047861;28;20179;-83
2022/06/22 05:45:45;;;;;;;9.25;6.35;;;15.00;99.90;;;;;;5068554;28;20210;-83
2022/06/22 05:48:18;;;;;;;7.82;6.03;;;15.10;99.90;;;;;;5043815;28;20242;-83
2022/06/22 05:50:59;;;;;;;10.02;6.40;;;15.20;99.90;;;;;;5050993;28;20660;-83
2022/06/22 05:53:39;;;;;;;8.65;5.97;;;15.30;99.90;;;;;;5050073;28;20170;-83
2022/06/22 05:56:05;;;;;;;8.02;5.45;;;15.40;99.90;;;;;;5035641;28;20737;-83
2022/06/22 05:59:03;;;;;;;6.50;5.13;;;15.60;99.90;;;;;;5008954;28;1214571;-83
2022/06/22 06:01:50;;;;;;;8.13;5.93;;;15.70;99.90;;;;;;5035993;28;20179;-83
2022/06/22 06:04:31;;;;;;;8.10;6.15;;;15.80;99.90;;;;;;5050757;28;20175;-82
2022/06/22 06:07:20;;;;;;;7.07;5.85;;;15.90;99.90;;;;;;5051261;28;20217;-81
2022/06/22 06:09:47;;;;;;;7.07;5.70;;;16.00;99.90;;;;;;5027525;28;20257;-81
2022/06/22 06:12:25;;;;;;;8.63;5.40;;;16.20;99.90;;;;;;5052406;28;20186;-82
2022/06/22 06:14:52;;;;;;;9.05;6.28;;;16.30;99.90;;;;;;5036843;28;20202;-82
2022/06/22 06:17:26;;;;;;;9.07;5.65;;;16.40;99.90;;;;;;5051579;28;20664;-82
2022/06/22 06:19:53;;;;;;;7.55;4.63;;;16.40;99.90;;;;;;5036245;28;20156;-82
2022/06/22 06:22:21;;;;;;;7.68;4.93;;;16.50;99.90;;;;;;5036609;28;20217;-82
2022/06/22 06:27:49;;;;;;;8.43;5.72;;;16.70;99.90;;;;;;5036666;28;20166;-82
2022/06/22 06:30:36;;;;;;;5.93;4.82;;;16.70;99.90;;;;;;5051440;28;20171;-82
2022/06/22 06:33:12;;;;;;;11.02;5.68;;;16.80;99.90;;;;;;5052038;28;20221;-81
2022/06/22 06:35:52;;;;;;;8.25;4.80;;;16.80;99.90;;;;;;5034570;28;20229;-81
2022/06/22 06:38:38;;;;;;;6.28;4.47;;;16.90;99.90;;;;;;5036146;28;20612;-82
2022/06/22 06:41:24;;;;;;;5.45;4.47;;;17.00;99.90;;;;;;5050917;28;20203;-83
2022/06/22 06:43:53;;;;;;;5.65;4.40;;;17.10;99.90;;;;;;5035407;28;20621;-81
2022/06/22 06:46:27;;;;;;;8.80;4.82;;;17.30;99.90;;;;;;5050134;28;20726;-81
2022/06/22 06:49:28;;;;;;;5.68;4.50;;;17.30;99.90;;;;;;5035911;28;20163;-81
2022/06/22 06:52:14;;;;;;;7.72;4.78;;;17.50;99.90;;;;;;5037074;28;20175;-81
2022/06/22 06:54:45;;;;;;;8.80;4.63;;;17.60;99.90;;;;;;5035411;28;20213;-81
2022/06/22 06:57:18;;;;;;;6.22;4.63;;;17.60;99.90;;;;;;5050791;28;20199;-81
2022/06/22 06:59:49;;;;;;;6.32;4.75;;;17.70;99.90;;;;;;5034715;28;20164;-81
2022/06/22 07:02:16;;;;;;;5.85;3.83;;;17.80;99.90;;;;;;5036546;28;20151;-81
2022/06/22 07:04:46;;;;;;;7.28;4.13;;;17.80;99.90;;;;;;5036238;28;20702;-81
2022/06/22 07:07:43;;;;;;;6.80;4.18;;;17.90;99.90;;;;;;5051346;28;20269;-81
2022/06/22 07:10:20;;;;;;;4.50;4.10;;;18.00;99.90;;;;;;5036741;28;20605;-81
2022/06/22 07:13:02;;;;;;;8.23;4.57;;;18.10;99.90;;;;;;5051370;28;20178;-81
2022/06/22 07:15:42;;;;;;;6.95;4.30;;;18.20;99.90;;;;;;5037301;28;20207;-79
2022/06/22 07:18:17;;;;;;;5.80;3.88;;;18.30;99.90;;;;;;5055301;28;20175;-80
2022/06/22 07:20:47;;;;;;;5.35;3.97;;;18.40;99.90;;;;;;5039858;28;20183;-80
2022/06/22 07:23:22;;;;;;;5.40;4.25;;;18.50;99.90;;;;;;5039281;28;20203;-80
2022/06/22 07:25:54;;;;;;;8.02;4.40;;;18.40;99.90;;;;;;5039020;28;20214;-80
2022/06/22 07:28:37;;;;;;;8.13;4.38;;;18.50;99.90;;;;;;5038476;28;20228;-80
2022/06/22 07:31:15;;;;;;;7.35;3.97;;;18.60;99.90;;;;;;5038893;28;20208;-79
2022/06/22 07:33:59;;;;;;;9.23;4.10;;;18.60;99.90;;;;;;5039064;28;20270;-79
2022/06/22 07:36:37;;;;;;;5.50;3.58;;;18.70;99.90;;;;;;5053917;28;20223;-80
2022/06/22 07:39:28;;;;;;;6.82;4.10;;;18.80;99.90;;;;;;5053936;28;20171;-81
2022/06/22 07:41:55;;;;;;;6.30;3.25;;;18.90;99.90;;;;;;5038321;28;20166;-81
2022/06/22 07:44:28;;;;;;;6.28;3.45;;;19.10;99.90;;;;;;5055056;28;20270;-82
2022/06/22 07:47:08;;;;;;;4.40;3.47;;;19.00;99.90;;;;;;5055696;28;20175;-82
2022/06/22 07:50:01;;;;;;;5.90;3.30;;;19.00;99.90;;;;;;5056590;28;20171;-84
2022/06/22 07:52:37;;;;;;;3.47;2.72;;;19.10;99.90;;;;;;5055069;28;20175;-79
2022/06/22 07:55:22;;;;;;;5.38;3.08;;;19.20;99.90;;;;;;5038460;28;20260;-81
2022/06/22 07:58:15;;;;;;;4.47;3.30;;;19.30;99.90;;;;;;5053459;28;20191;-80
2022/06/22 08:00:42;;;;;;;4.75;3.08;;;19.40;99.90;;;;;;5053176;28;20185;-80
2022/06/22 08:03:23;;;;;;;6.82;3.35;;;19.50;99.90;;;;;;5038310;28;20527;-80
2022/06/22 08:05:51;;;;;;;8.55;3.33;;;19.60;99.90;;;;;;5053671;28;20214;-81
2022/06/22 08:08:19;;;;;;;3.10;2.47;;;19.60;99.90;;;;;;5053758;28;20659;-81
2022/06/22 08:10:52;;;;;;;6.07;3.28;;;19.70;99.90;;;;;;5036682;28;20187;-81
2022/06/22 08:13:24;;;;;;;5.78;2.80;;;19.70;99.90;;;;;;5053061;28;20175;-81
2022/06/22 08:16:06;;;;;;;4.10;2.60;;;19.80;99.90;;;;;;5052746;28;20215;-81
2022/06/22 08:18:32;;;;;;;4.50;2.80;;;19.90;99.90;;;;;;5052919;28;20171;-81
2022/06/22 08:20:58;;;;;;;6.43;3.30;;;20.00;99.90;;;;;;5036028;28;20233;-79
2022/06/22 08:23:27;;;;;;;5.40;2.90;;;20.10;99.90;;;;;;5035636;28;20175;-80
2022/06/22 08:25:56;;;;;;;6.53;3.03;;;20.10;99.90;;;;;;5037977;28;20197;-81
2022/06/22 08:28:24;;;;;;;6.65;2.78;;;20.00;99.90;;;;;;5038236;28;20193;-81
2022/06/22 08:30:52;;;;;;;6.30;3.05;;;20.10;99.90;;;;;;5039509;28;20171;-81
2022/06/22 08:33:26;;;;;;;2.88;2.67;;;20.20;99.90;;;;;;5038874;28;20257;-81
2022/06/22 08:36:04;;;;;;;4.82;2.83;;;20.30;99.90;;;;;;5038237;28;20206;-81
2022/06/22 08:39:24;;;;;;;4.97;2.42;;;20.40;99.90;;;;;;5037808;28;20186;-84
2022/06/22 08:42:21;;;;;;;7.05;2.63;;;20.60;99.90;;;;;;4996641;28;20173;-84
2022/06/22 08:44:53;;;;;;;4.93;2.47;;;20.70;99.90;;;;;;5032155;28;20234;-83
2022/06/22 08:47:54;;;;;;;6.43;2.30;;;20.90;99.90;;;;;;5053067;28;20624;-81
2022/06/22 08:50:52;;;;;;;4.90;2.35;;;21.00;99.90;;;;;;5020589;28;20193;-81
2022/06/22 08:53:47;;;;;;;4.18;2.40;;;21.20;99.90;;;;;;5052720;28;20553;-81
2022/06/22 08:56:27;;;;;;;2.25;2.05;;;21.40;99.90;;;;;;5053205;28;20203;-81
2022/06/22 08:58:55;;;;;;;5.90;2.25;;;21.50;99.90;;;;;;5054649;28;20223;-81
2022/06/22 09:01:46;;;;;;;3.65;2.33;;;21.70;99.90;;;;;;5054399;28;20636;-81
2022/06/22 09:04:36;;;;;;;3.40;1.90;;;21.90;99.90;;;;;;5037361;28;20194;-82
2022/06/22 09:07:39;;;;;;;4.43;1.77;;;22.10;99.90;;;;;;5037882;28;20250;-81
2022/06/22 09:10:44;;;;;;;2.97;1.90;;;22.30;99.90;;;;;;5053612;28;20211;-83
2022/06/22 09:13:35;;;;;;;2.20;1.83;;;22.50;99.90;;;;;;5022947;28;20187;-83
2022/06/22 09:16:19;;;;;;;6.22;2.08;;;22.80;99.90;;;;;;5065217;28;20207;-83
2022/06/22 09:18:53;;;;;;;6.60;2.10;;;23.00;99.90;;;;;;5059658;28;20171;-83
2022/06/22 09:22:13;;;;;;;2.63;2.10;;;23.20;99.90;;;;;;5042370;28;20623;-83
2022/06/22 09:25:10;;;;;;;2.08;1.80;;;23.40;99.90;;;;;;4999762;28;20616;-82
2022/06/22 09:27:44;;;;;;;3.88;2.00;;;23.40;99.90;;;;;;5056541;28;20220;-82
2022/06/22 09:30:30;;;;;;;4.65;2.13;;;23.50;99.90;;;;;;5055302;28;20168;-82
2022/06/22 09:33:01;;;;;;;7.20;2.28;;;23.80;99.90;;;;;;5030656;28;20187;-82
2022/06/22 09:35:43;;;;;;;4.38;2.05;;;24.00;99.90;;;;;;5038880;28;20225;-82
2022/06/22 09:38:35;;;;;;;2.00;1.80;;;24.20;99.90;;;;;;5053018;28;20193;-82
2022/06/22 09:41:11;;;;;;;3.25;2.00;;;24.40;99.90;;;;;;5053689;28;20182;-82
2022/06/22 09:44:00;;;;;;;4.35;1.98;;;24.50;99.90;;;;;;5053215;28;20167;-82
2022/06/22 09:46:30;;;;;;;4.10;1.80;;;24.50;99.90;;;;;;5053756;28;20199;-82
2022/06/22 09:49:18;;;;;;;3.75;1.80;;;24.60;99.90;;;;;;5053294;28;20176;-82
2022/06/22 09:52:09;;;;;;;3.03;1.80;;;24.80;99.90;;;;;;5053286;28;20277;-82
2022/06/22 09:58:07;;;;;;;4.60;2.17;;;24.90;99.90;;;;;;5037178;28;20202;-82
2022/06/22 10:00:38;;;;;;;5.35;2.03;;;25.00;99.90;;;;;;5052841;28;20253;-82
2022/06/22 10:03:39;;;;;;;2.20;1.80;;;24.80;99.90;;;;;;5052735;28;20174;-82
2022/06/22 10:06:13;;;;;;;2.67;1.98;;;24.80;99.90;;;;;;5054958;28;20195;-82
2022/06/22 10:08:57;;;;;;;2.85;2.00;;;24.90;99.90;;;;;;5053080;28;20214;-82
2022/06/22 10:11:38;;;;;;;6.82;3.45;;;25.00;99.90;;;;;;5039247;28;20183;-82
2022/06/22 10:14:24;;;;;;;2.72;2.03;;;25.20;99.90;;;;;;5052861;28;20566;-82
2022/06/22 10:17:05;;;;;;;2.58;1.90;;;25.20;99.90;;;;;;5051916;28;20167;-82
2022/06/22 10:19:58;;;;;;;4.75;2.50;;;25.10;99.90;;;;;;5051487;28;20186;-82
2022/06/22 10:22:51;;;;;;;4.03;1.95;;;25.10;99.90;;;;;;5054865;28;20294;-82
2022/06/22 10:25:38;;;;;;;2.88;2.03;;;25.20;99.90;;;;;;5052653;28;20206;-82
2022/06/22 10:28:33;;;;;;;4.32;2.10;;;25.40;99.90;;;;;;5036288;28;20689;-82
2022/06/22 10:31:21;;;;;;;6.68;2.80;;;25.50;99.90;;;;;;5036583;28;20206;-82
2022/06/22 10:33:56;;;;;;;8.18;2.67;;;25.60;99.90;;;;;;5053166;28;20190;-82
2022/06/22 10:36:34;;;;;;;2.90;1.70;;;25.70;99.90;;;;;;5052103;28;20268;-82
2022/06/22 10:39:24;;;;;;;6.13;2.10;;;25.50;99.90;;;;;;5051109;28;20266;-82
2022/06/22 10:45:13;;;;;;;6.72;2.45;;;25.30;99.90;;;;;;5036876;28;20202;-82
2022/06/22 10:47:57;;;;;;;3.08;1.80;;;25.50;99.90;;;;;;5051857;28;20221;-82
2022/06/22 10:50:49;;;;;;;3.35;2.05;;;25.60;99.90;;;;;;5038007;28;20571;-82
2022/06/22 10:53:36;;;;;;;3.35;1.95;;;25.70;99.90;;;;;;5038582;28;20191;-82
2022/06/22 10:56:36;;;;;;;2.13;1.77;;;25.80;99.90;;;;;;5056556;28;20341;-82
2022/06/22 10:59:39;;;;;;;3.45;2.10;;;25.90;99.90;;;;;;5041224;28;20213;-82
2022/06/22 11:02:33;;;;;;;5.43;1.90;;;26.00;99.90;;;;;;5056960;28;20177;-82
2022/06/22 11:04:59;;;;;;;3.78;2.17;;;25.60;99.90;;;;;;5055528;28;20199;-82
2022/06/22 11:07:53;;;;;;;1.85;1.70;;;25.60;99.90;;;;;;5039772;28;20167;-82
2022/06/22 11:10:48;;;;;;;3.40;2.10;;;25.80;99.90;;;;;;5055457;28;20172;-82
2022/06/22 11:13:32;;;;;;;2.72;1.58;;;26.10;99.90;;;;;;5038195;28;20643;-83
2022/06/22 11:16:18;;;;;;;4.50;1.92;;;26.30;99.90;;;;;;5054777;28;20210;-83
2022/06/22 11:19:11;;;;;;;2.38;1.65;;;26.50;99.90;;;;;;5039349;28;20167;-83
2022/06/22 11:21:58;;;;;;;2.70;1.73;;;26.50;99.90;;;;;;5054589;28;20250;-83
2022/06/22 11:24:41;;;;;;;2.42;1.95;;;26.60;99.90;;;;;;5039503;28;20640;-83
2022/06/22 11:33:03;;;;;;;2.70;1.70;;;27.00;99.90;;;;;;5039028;28;20221;-83
2022/06/22 11:35:50;;;;;;;2.60;2.13;;;27.20;99.90;;;;;;5053300;28;20703;-83
2022/06/22 11:38:40;;;;;;;3.25;2.03;;;27.50;99.90;;;;;;5054191;28;20171;-83
2022/06/22 11:41:15;;;;;;;2.42;1.92;;;27.60;99.90;;;;;;5038651;28;20190;-83
2022/06/22 11:44:11;;;;;;;3.08;1.70;;;27.70;99.90;;;;;;5053725;28;20166;-83
2022/06/22 11:46:45;;;;;;;2.40;1.80;;;27.90;99.90;;;;;;5038184;28;20178;-83
2022/06/22 11:49:38;;;;;;;2.65;2.00;;;27.90;99.90;;;;;;5053742;28;20163;-83
2022/06/22 11:52:12;;;;;;;3.42;1.60;;;28.00;99.90;;;;;;5038906;28;20586;-83
2022/06/22 11:55:16;;;;;;;4.07;2.00;;;28.20;99.90;;;;;;5053287;28;20214;-83
2022/06/22 11:58:11;;;;;;;2.35;1.80;;;28.20;99.90;;;;;;5059122;28;20190;-83
2022/06/22 12:00:53;;;;;;;4.32;2.40;;;28.10;99.90;;;;;;5058454;28;20167;-84
2022/06/22 12:03:57;;;;;;;3.13;2.05;;;28.40;99.90;;;;;;5053706;28;20175;-83
2022/06/22 12:06:26;;;;;;;1.70;1.60;;;28.60;99.90;;;;;;5049457;28;20286;-83
2022/06/22 12:09:12;;;;;;;3.42;1.90;;;28.70;99.90;;;;;;5062865;28;20187;-83
2022/06/22 12:11:51;;;;;;;3.33;1.80;;;29.00;99.90;;;;;;5059008;28;20202;-83
2022/06/22 12:17:24;;;;;;;2.20;1.98;;;29.30;99.90;;;;;;5043195;28;20233;-83
2022/06/22 12:20:01;;;;;;;3.72;1.80;;;29.60;99.90;;;;;;5041988;28;20628;-84
2022/06/22 12:22:36;;;;;;;2.90;1.55;;;29.70;99.90;;;;;;5055341;28;20167;-83
2022/06/22 12:25:27;;;;;;;1.92;1.60;;;29.90;99.90;;;;;;5054292;28;20222;-83
2022/06/22 12:28:19;;;;;;;2.30;1.63;;;30.00;99.90;;;;;;5036951;28;20212;-83
2022/06/22 12:30:55;;;;;;;2.22;1.60;;;30.20;99.90;;;;;;5023395;28;20195;-83
2022/06/22 12:33:31;;;;;;;3.85;1.73;;;30.40;99.90;;;;;;5053241;28;20175;-86
2022/06/22 12:36:03;;;;;;;2.17;1.60;;;30.60;99.90;;;;;;5054223;28;20206;-83
2022/06/22 12:39:04;;;;;;;3.35;1.80;;;30.80;99.90;;;;;;5040582;28;20223;-81
2022/06/22 12:41:48;;;;;;;2.63;1.40;;;30.90;99.90;;;;;;5038992;28;20175;-81
2022/06/22 12:44:33;;;;;;;2.13;1.30;;;31.10;99.90;;;;;;5052255;28;20185;-81
2022/06/22 12:47:36;;;;;;;2.92;1.42;;;31.00;99.90;;;;;;5052486;28;20240;-81
2022/06/22 12:50:23;;;;;;;2.15;1.35;;;31.30;99.90;;;;;;5052876;28;20199;-81
2022/06/22 12:52:58;;;;;;;2.55;1.30;;;31.40;99.90;;;;;;5053559;28;20210;-81
2022/06/22 12:55:42;;;;;;;2.20;1.50;;;31.50;99.90;;;;;;5060157;28;20214;-81
2022/06/22 12:58:16;;;;;;;1.77;1.33;;;31.40;99.90;;;;;;5045274;28;20215;-81
2022/06/22 13:00:43;;;;;;;2.70;1.35;;;31.50;99.90;;;;;;5056558;28;20167;-81
2022/06/22 13:03:16;;;;;;;2.85;1.40;;;31.20;99.10;;;;;;5040414;28;20179;-81
2022/06/22 13:05:43;;;;;;;3.80;1.50;;;31.00;97.60;;;;;;5054909;28;20225;-81
2022/06/22 13:08:16;;;;;;;2.00;1.40;;;30.90;99.90;;;;;;5054965;28;20694;-81
2022/06/22 13:10:45;;;;;;;2.42;1.50;;;31.00;99.90;;;;;;5039284;28;20159;-81
2022/06/22 13:13:28;;;;;;;2.20;1.50;;;31.40;98.00;;;;;;5054362;28;20183;-81
2022/06/22 13:16:03;;;;;;;3.72;1.50;;;31.30;96.70;;;;;;5054506;28;20217;-81
2022/06/22 13:18:53;;;;;;;5.03;2.00;;;31.20;97.70;;;;;;5054032;28;20279;-81
2022/06/22 13:21:29;;;;;;;2.85;1.50;;;30.70;97.60;;;;;;5038258;28;20227;-81
2022/06/22 13:24:23;;;;;;;3.22;1.45;;;31.20;98.00;;;;;;5053539;28;20210;-81
2022/06/22 13:26:59;;;;;;;3.67;1.70;;;31.60;99.40;;;;;;5053205;28;20201;-81
2022/06/22 13:29:43;;;;;;;1.40;1.30;;;32.10;99.20;;;;;;5037457;28;20163;-81
2022/06/22 13:32:12;;;;;;;2.95;1.60;;;32.40;98.30;;;;;;5052472;28;20545;-81
2022/06/22 13:34:48;;;;;;;2.28;1.58;;;32.30;96.80;;;;;;5052616;28;20625;-82
2022/06/22 13:37:32;;;;;;;2.70;1.58;;;32.10;96.40;;;;;;5052689;28;20262;-82
2022/06/22 13:40:12;;;;;;;2.95;1.70;;;32.30;97.30;;;;;;5059370;28;20578;-81
2022/06/22 13:43:16;;;;;;;2.67;1.75;;;32.40;96.40;;;;;;5058469;28;20170;-82
2022/06/22 13:46:12;;;;;;;2.17;1.58;;;32.60;96.10;;;;;;5046486;28;20211;-83
2022/06/22 13:48:58;;;;;;;3.65;1.65;;;33.00;98.20;;;;;;5044280;28;20179;-84
2022/06/22 13:51:44;;;;;;;5.38;1.70;;;33.40;99.10;;;;;;5061084;28;20269;-84
2022/06/22 13:54:26;;;;;;;2.90;1.45;;;33.70;97.80;;;;;;5060129;28;20281;-83
2022/06/22 13:57:08;;;;;;;3.95;1.55;;;33.30;97.60;;;;;;5044105;28;20154;-83
2022/06/22 13:59:34;;;;;;;3.60;1.50;;;33.50;98.90;;;;;;5058182;28;20175;-83
2022/06/22 14:02:22;;;;;;;2.92;1.90;;;33.70;97.90;;;;;;5059202;28;20171;-83
2022/06/22 14:04:58;;;;;;;1.95;1.20;;;33.40;94.60;;;;;;5044291;28;20195;-83
2022/06/22 14:08:03;;;;;;;3.45;1.60;;;33.10;95.90;;;;;;5056351;28;20182;-84
2022/06/22 14:10:35;;;;;;;1.52;1.20;;;33.30;95.00;;;;;;5052264;28;20237;-84
2022/06/22 14:13:09;;;;;;;4.07;1.40;;;33.30;94.80;;;;;;5037456;28;20202;-84
2022/06/22 14:15:49;;;;;;;3.08;1.70;;;33.60;94.20;;;;;;5052871;28;20583;-84
2022/06/22 14:18:33;;;;;;;2.42;1.30;;;33.60;95.40;;;;;;5036745;28;20525;-84
2022/06/22 14:21:09;;;;;;;3.67;1.55;;;33.90;93.80;;;;;;5053817;28;20178;-83
2022/06/22 14:23:37;;;;;;;3.13;1.75;;;33.20;93.90;;;;;;5038423;28;20235;-83
2022/06/22 14:26:22;;;;;;;2.50;1.60;;;33.20;95.10;;;;;;5055853;28;20220;-83
2022/06/22 14:28:59;;;;;;;2.25;1.55;;;33.40;96.10;;;;;;5058598;28;20159;-83